Time;durP1;ratioP1;P1;durP2;ratioP2;P2;SDS_P1;SDS_P2;PMS_P1;PMS_P2;Temp;Humidity;BMP_temperature;BMP_pressure;BME280_temperature;BME280_humidity;BME280_pressure;Samples;Min_cycle;Max_cycle;Signal;HPM_P1;HPM_P2
2022/03/24 00:00:38;;;;;;;40.05;31.83;;;5.80;99.90;;;;;;4953972;29;20050;-79
2022/03/24 00:03:07;;;;;;;39.83;31.30;;;5.80;99.90;;;;;;4937379;29;20109;-79
2022/03/24 00:05:33;;;;;;;43.00;31.20;;;5.70;99.90;;;;;;4952007;29;20031;-79
2022/03/24 00:07:59;;;;;;;42.47;32.15;;;5.80;99.90;;;;;;4932190;29;20043;-79
2022/03/24 00:10:25;;;;;;;42.00;33.42;;;5.60;99.90;;;;;;4936858;29;20027;-79
2022/03/24 00:12:55;;;;;;;43.28;32.97;;;5.60;99.90;;;;;;4921142;29;20105;-80
2022/03/24 00:15:21;;;;;;;38.15;31.35;;;5.50;99.90;;;;;;4937089;29;20371;-80
2022/03/24 00:17:47;;;;;;;39.25;31.63;;;5.50;99.90;;;;;;4920493;29;20070;-80
2022/03/24 00:20:13;;;;;;;37.55;30.52;;;5.50;99.90;;;;;;4920905;29;20050;-80
2022/03/24 00:22:39;;;;;;;41.08;30.27;;;5.50;99.90;;;;;;4953221;29;20098;-80
2022/03/24 00:25:05;;;;;;;37.15;27.98;;;5.40;99.90;;;;;;4936206;29;20043;-80
2022/03/24 00:27:31;;;;;;;37.13;28.35;;;5.40;99.90;;;;;;4936394;29;20050;-80
2022/03/24 00:29:57;;;;;;;44.83;31.55;;;5.40;99.90;;;;;;4936582;29;20043;-80
2022/03/24 00:32:22;;;;;;;44.08;31.35;;;5.20;99.90;;;;;;4936018;29;20047;-80
2022/03/24 00:34:48;;;;;;;40.58;31.75;;;5.20;99.90;;;;;;4953705;29;20481;-80
2022/03/24 00:37:14;;;;;;;40.20;32.17;;;5.30;99.90;;;;;;4936669;29;20051;-80
2022/03/24 00:39:40;;;;;;;40.90;31.58;;;5.20;99.90;;;;;;4936543;29;20054;-80
2022/03/24 00:42:11;;;;;;;40.50;32.10;;;5.20;99.90;;;;;;4928057;29;20070;-80
2022/03/24 00:44:37;;;;;;;40.08;32.08;;;5.20;99.90;;;;;;4936484;29;20812;-80
2022/03/24 00:47:04;;;;;;;41.38;31.75;;;5.20;99.90;;;;;;4932907;29;20484;-80
2022/03/24 00:49:30;;;;;;;41.47;32.78;;;5.20;99.90;;;;;;4940861;29;20086;-80
2022/03/24 00:51:56;;;;;;;42.78;33.22;;;5.20;99.90;;;;;;4932029;29;20117;-80
2022/03/24 00:54:21;;;;;;;47.33;32.95;;;5.20;99.90;;;;;;4931693;29;20096;-79
2022/03/24 00:56:48;;;;;;;42.60;32.40;;;5.20;99.90;;;;;;4940895;29;20035;-79
2022/03/24 00:59:13;;;;;;;45.40;32.53;;;5.10;99.90;;;;;;4952012;29;20672;-80
2022/03/24 01:01:39;;;;;;;41.20;32.45;;;5.20;99.90;;;;;;4927401;29;20035;-79
2022/03/24 01:04:09;;;;;;;44.63;34.13;;;5.10;99.90;;;;;;4935415;29;20094;-80
2022/03/24 01:06:35;;;;;;;44.53;32.13;;;5.00;99.90;;;;;;4947930;29;20051;-80
2022/03/24 01:09:04;;;;;;;45.70;34.10;;;5.00;99.90;;;;;;4953513;29;20043;-80
2022/03/24 01:11:31;;;;;;;47.20;34.20;;;4.90;99.90;;;;;;4919334;29;20043;-80
2022/03/24 01:13:57;;;;;;;44.00;33.95;;;4.80;99.90;;;;;;4941464;29;20680;-80
2022/03/24 01:16:25;;;;;;;44.88;34.40;;;4.70;99.90;;;;;;4925405;29;20047;-80
2022/03/24 01:18:51;;;;;;;45.60;33.67;;;4.80;99.90;;;;;;4933845;29;20051;-81
2022/03/24 01:21:17;;;;;;;48.08;35.45;;;4.70;99.90;;;;;;4953515;29;20046;-80
2022/03/24 01:23:45;;;;;;;52.70;36.60;;;4.60;99.90;;;;;;4946481;29;20086;-80
2022/03/24 01:26:11;;;;;;;54.92;39.35;;;4.60;99.90;;;;;;4953059;29;20036;-80
2022/03/24 01:28:37;;;;;;;49.85;36.47;;;4.60;99.90;;;;;;4947561;29;20036;-80
2022/03/24 01:31:03;;;;;;;48.75;36.33;;;4.60;99.90;;;;;;4933731;29;20548;-80
2022/03/24 01:33:28;;;;;;;48.67;38.03;;;4.50;99.90;;;;;;4909036;29;20051;-80
2022/03/24 01:35:54;;;;;;;50.90;37.30;;;4.60;99.90;;;;;;4942879;29;20079;-80
2022/03/24 01:38:22;;;;;;;48.97;37.67;;;4.60;99.90;;;;;;4954587;29;20031;-80
2022/03/24 01:40:48;;;;;;;57.20;40.13;;;4.60;99.90;;;;;;4961413;28;20051;-80
2022/03/24 01:43:14;;;;;;;55.78;40.90;;;4.50;99.90;;;;;;4939251;29;20086;-81
2022/03/24 01:45:40;;;;;;;55.65;41.60;;;4.50;99.90;;;;;;4921737;29;20386;-80
2022/03/24 01:48:08;;;;;;;56.75;40.83;;;4.30;99.90;;;;;;4943041;29;20036;-80
2022/03/24 01:50:35;;;;;;;53.63;40.60;;;4.30;99.90;;;;;;4920630;29;20115;-80
2022/03/24 01:53:01;;;;;;;52.03;38.13;;;4.30;99.90;;;;;;4947892;29;20513;-80
2022/03/24 01:55:27;;;;;;;54.50;39.40;;;4.30;99.90;;;;;;4956569;29;20054;-80
2022/03/24 01:57:53;;;;;;;57.28;41.60;;;4.30;99.90;;;;;;4939393;29;20044;-80
2022/03/24 02:00:19;;;;;;;64.57;42.72;;;4.20;99.90;;;;;;4938260;29;20042;-80
2022/03/24 02:02:45;;;;;;;56.38;39.58;;;4.00;99.90;;;;;;4939235;29;20047;-80
2022/03/24 02:05:11;;;;;;;57.55;41.13;;;3.90;99.90;;;;;;4956674;29;20106;-80
2022/03/24 02:07:37;;;;;;;59.22;41.88;;;3.90;99.90;;;;;;4939092;29;20111;-80
2022/03/24 02:10:07;;;;;;;59.15;41.95;;;3.80;99.90;;;;;;4939605;29;20380;-80
2022/03/24 02:12:34;;;;;;;53.28;40.08;;;3.80;99.90;;;;;;4939266;29;20062;-80
2022/03/24 02:15:00;;;;;;;53.15;39.72;;;3.90;99.90;;;;;;4938625;29;20102;-80
2022/03/24 02:17:30;;;;;;;52.13;39.20;;;3.90;99.90;;;;;;4938395;29;20055;-80
2022/03/24 02:19:57;;;;;;;55.10;40.58;;;3.90;99.90;;;;;;4956744;29;20086;-81
2022/03/24 02:22:25;;;;;;;53.30;39.47;;;3.90;99.90;;;;;;4955946;29;20062;-80
2022/03/24 02:24:51;;;;;;;53.67;40.63;;;3.90;99.90;;;;;;4956343;29;20730;-80
2022/03/24 02:27:16;;;;;;;53.70;40.88;;;3.80;99.90;;;;;;4938672;29;20055;-80
2022/03/24 02:29:42;;;;;;;54.15;39.42;;;3.80;99.90;;;;;;4905552;29;20352;-80
2022/03/24 02:32:11;;;;;;;51.92;38.95;;;3.90;99.90;;;;;;4936873;29;20054;-80
2022/03/24 02:34:38;;;;;;;51.30;38.17;;;3.90;99.90;;;;;;4927233;29;20062;-80
2022/03/24 02:37:15;;;;;;;55.80;38.35;;;3.90;99.90;;;;;;4931913;29;20371;-81
2022/03/24 02:39:42;;;;;;;53.53;40.45;;;3.90;99.90;;;;;;4920092;29;20043;-80
2022/03/24 02:42:14;;;;;;;54.20;40.00;;;3.90;99.90;;;;;;4938514;29;20401;-80
2022/03/24 02:44:43;;;;;;;48.95;37.55;;;3.90;99.90;;;;;;4937585;29;20046;-80
2022/03/24 02:47:10;;;;;;;52.72;37.83;;;3.90;99.90;;;;;;4952228;28;20457;-80
2022/03/24 02:49:38;;;;;;;54.83;40.15;;;3.90;99.90;;;;;;4936926;29;20043;-80
2022/03/24 02:52:04;;;;;;;52.22;39.33;;;3.80;99.90;;;;;;4955736;29;20580;-80
2022/03/24 02:54:31;;;;;;;52.00;38.45;;;3.80;99.90;;;;;;4938202;29;20047;-80
2022/03/24 02:56:57;;;;;;;52.33;36.85;;;3.80;99.90;;;;;;4944811;29;20039;-80
2022/03/24 02:59:22;;;;;;;55.30;37.30;;;4.00;99.90;;;;;;4937656;29;20429;-80
2022/03/24 03:02:05;;;;;;;51.35;37.92;;;3.80;99.90;;;;;;4937461;29;20043;-80
2022/03/24 03:04:38;;;;;;;47.40;35.85;;;3.80;99.90;;;;;;4941849;29;20039;-80
2022/03/24 03:07:05;;;;;;;51.50;36.50;;;3.90;99.90;;;;;;4975214;23;20078;-84
2022/03/24 03:09:34;;;;;;;49.95;37.20;;;3.70;99.90;;;;;;4941821;28;20404;-84
2022/03/24 03:12:00;;;;;;;51.40;37.55;;;3.70;99.90;;;;;;4956968;28;20125;-84
2022/03/24 03:14:27;;;;;;;49.55;37.38;;;3.60;99.90;;;;;;4944327;28;20074;-84
2022/03/24 03:16:53;;;;;;;51.83;38.30;;;3.60;99.90;;;;;;4937584;29;20043;-84
2022/03/24 03:19:19;;;;;;;51.67;39.10;;;3.60;99.90;;;;;;4939187;29;20043;-84
2022/03/24 03:21:49;;;;;;;55.03;40.88;;;3.60;99.90;;;;;;4954849;29;20043;-84
2022/03/24 03:24:15;;;;;;;53.40;39.40;;;3.60;99.90;;;;;;4944744;29;20047;-83
2022/03/24 03:26:41;;;;;;;50.85;38.88;;;3.60;99.90;;;;;;4937524;29;20039;-84
2022/03/24 03:29:08;;;;;;;50.20;37.33;;;3.60;99.90;;;;;;4954364;29;20066;-84
2022/03/24 03:31:34;;;;;;;52.33;37.78;;;3.60;99.90;;;;;;4938545;29;20388;-84
2022/03/24 03:34:01;;;;;;;47.80;36.72;;;3.60;99.90;;;;;;4938344;29;20895;-84
2022/03/24 03:36:27;;;;;;;49.30;37.08;;;3.50;99.90;;;;;;4923117;29;20489;-84
2022/03/24 03:38:53;;;;;;;53.70;40.22;;;3.50;99.90;;;;;;4938986;29;20047;-84
2022/03/24 03:41:22;;;;;;;54.50;40.30;;;3.40;99.90;;;;;;4927200;29;20083;-84
2022/03/24 03:43:48;;;;;;;52.92;40.55;;;3.30;99.90;;;;;;4935773;29;20039;-84
2022/03/24 03:46:14;;;;;;;60.45;44.05;;;3.30;99.90;;;;;;4935179;29;20118;-84
2022/03/24 03:48:43;;;;;;;64.57;46.28;;;3.10;99.90;;;;;;4919681;29;20043;-84
2022/03/24 03:51:09;;;;;;;62.47;44.28;;;3.00;99.90;;;;;;4912331;29;20047;-85
2022/03/24 03:53:35;;;;;;;62.13;45.25;;;3.00;99.90;;;;;;4922886;29;20051;-85
2022/03/24 03:56:03;;;;;;;60.45;44.60;;;3.10;99.90;;;;;;4938138;29;20051;-85
2022/03/24 03:58:28;;;;;;;60.70;44.50;;;3.10;99.90;;;;;;4937411;29;20081;-85
2022/03/24 04:00:56;;;;;;;61.60;44.70;;;3.00;99.90;;;;;;4938537;29;20042;-86
2022/03/24 04:03:26;;;;;;;63.08;44.88;;;3.00;99.90;;;;;;4938327;29;20046;-85
2022/03/24 04:05:54;;;;;;;58.72;43.78;;;3.10;99.90;;;;;;4922021;29;20047;-86
2022/03/24 04:08:20;;;;;;;63.72;44.47;;;3.10;99.90;;;;;;4937779;29;20047;-85
2022/03/24 04:10:46;;;;;;;58.88;43.35;;;3.10;99.90;;;;;;4921540;29;20032;-85
2022/03/24 04:13:12;;;;;;;60.38;43.10;;;3.00;99.90;;;;;;4921014;29;20082;-86
2022/03/24 04:15:38;;;;;;;61.22;42.63;;;3.00;99.90;;;;;;4940825;29;20050;-86
2022/03/24 04:18:06;;;;;;;63.10;46.05;;;3.10;99.90;;;;;;4921135;29;20066;-85
2022/03/24 04:20:32;;;;;;;64.18;46.08;;;3.00;99.90;;;;;;4921936;29;20055;-85
2022/03/24 04:23:03;;;;;;;61.50;45.20;;;2.90;99.90;;;;;;4937304;29;20059;-86
2022/03/24 04:25:29;;;;;;;59.72;44.38;;;2.90;99.90;;;;;;4947679;29;20052;-86
2022/03/24 04:27:55;;;;;;;61.28;44.30;;;2.80;99.90;;;;;;4930920;29;20039;-86
2022/03/24 04:30:21;;;;;;;64.35;42.50;;;2.90;99.90;;;;;;4937227;29;20047;-86
2022/03/24 04:32:48;;;;;;;57.92;41.88;;;2.90;99.90;;;;;;4936890;29;20105;-86
2022/03/24 04:35:14;;;;;;;58.95;42.20;;;2.80;99.90;;;;;;4937502;29;20098;-86
2022/03/24 04:37:41;;;;;;;54.13;40.65;;;2.90;99.90;;;;;;4937691;29;20043;-86
2022/03/24 04:40:07;;;;;;;56.97;41.70;;;2.90;99.90;;;;;;4922680;29;20043;-86
2022/03/24 04:42:34;;;;;;;55.35;40.92;;;2.90;99.90;;;;;;4937948;29;20410;-86
2022/03/24 04:45:00;;;;;;;56.53;41.03;;;2.90;99.90;;;;;;4937961;29;20035;-86
2022/03/24 04:47:26;;;;;;;52.92;38.45;;;2.90;99.90;;;;;;4937855;29;20039;-86
2022/03/24 04:49:52;;;;;;;51.78;39.05;;;2.90;99.90;;;;;;4936938;29;20484;-86
2022/03/24 04:52:19;;;;;;;54.38;39.58;;;2.80;99.90;;;;;;4937819;29;20058;-86
2022/03/24 04:54:45;;;;;;;53.72;39.13;;;2.80;99.90;;;;;;4937840;29;20047;-86
2022/03/24 04:57:11;;;;;;;54.78;41.38;;;2.80;99.90;;;;;;4937756;29;20075;-86
2022/03/24 04:59:36;;;;;;;57.83;41.13;;;2.80;99.90;;;;;;4921395;29;20094;-86
2022/03/24 05:02:02;;;;;;;54.83;40.10;;;2.70;99.90;;;;;;4937157;29;20078;-86
2022/03/24 05:04:28;;;;;;;51.53;38.22;;;2.70;99.90;;;;;;4936070;29;20039;-85
2022/03/24 05:06:54;;;;;;;51.72;39.10;;;2.70;99.90;;;;;;4937424;28;20063;-86
2022/03/24 05:09:19;;;;;;;58.83;42.05;;;2.80;99.90;;;;;;4941008;29;20094;-86
2022/03/24 05:11:45;;;;;;;58.60;42.33;;;2.70;99.90;;;;;;4941309;29;20043;-86
2022/03/24 05:14:12;;;;;;;60.28;42.53;;;2.60;99.90;;;;;;4941380;29;20047;-86
2022/03/24 05:16:38;;;;;;;60.50;43.10;;;2.60;99.90;;;;;;4916501;29;20122;-86
2022/03/24 05:19:04;;;;;;;60.10;43.90;;;2.50;99.90;;;;;;4922230;29;20126;-86
2022/03/24 05:21:34;;;;;;;57.25;43.00;;;2.50;99.90;;;;;;4936919;29;20043;-86
2022/03/24 05:24:00;;;;;;;64.55;42.65;;;2.50;99.90;;;;;;4926671;29;20138;-86
2022/03/24 05:26:26;;;;;;;60.97;43.47;;;2.60;99.90;;;;;;4940740;29;20432;-86
2022/03/24 05:28:51;;;;;;;56.20;40.58;;;2.60;99.90;;;;;;4925039;29;20047;-86
2022/03/24 05:31:18;;;;;;;55.47;39.88;;;2.60;99.90;;;;;;4939774;29;20049;-85
2022/03/24 05:33:44;;;;;;;56.10;39.13;;;2.60;99.90;;;;;;4923894;29;20523;-85
2022/03/24 05:36:10;;;;;;;59.92;41.22;;;2.50;99.90;;;;;;4936393;29;20047;-86
2022/03/24 05:38:36;;;;;;;53.80;39.60;;;2.50;99.90;;;;;;4939651;29;20035;-86
2022/03/24 05:41:02;;;;;;;58.17;41.10;;;2.50;99.90;;;;;;4952748;28;20195;-86
2022/03/24 05:43:28;;;;;;;53.80;39.25;;;2.60;99.90;;;;;;4923776;29;20135;-86
2022/03/24 05:45:54;;;;;;;60.13;41.05;;;2.60;99.90;;;;;;4923867;29;20070;-86
2022/03/24 05:48:19;;;;;;;60.47;42.40;;;2.60;99.90;;;;;;4940114;29;20051;-86
2022/03/24 05:50:45;;;;;;;57.67;42.95;;;2.60;99.90;;;;;;4940069;29;20051;-86
2022/03/24 05:53:10;;;;;;;56.20;41.20;;;2.60;99.90;;;;;;4940302;29;20079;-85
2022/03/24 05:55:38;;;;;;;70.03;45.10;;;2.60;99.90;;;;;;4945168;28;20050;-85
2022/03/24 05:58:04;;;;;;;67.43;44.60;;;2.60;99.90;;;;;;4933995;29;20505;-86
2022/03/24 06:00:30;;;;;;;64.57;46.15;;;2.70;99.90;;;;;;4924201;29;20085;-85
2022/03/24 06:02:56;;;;;;;60.60;43.22;;;2.70;99.90;;;;;;4939770;29;20043;-86
2022/03/24 06:05:23;;;;;;;64.35;43.45;;;2.80;99.90;;;;;;4940255;29;20600;-85
2022/03/24 06:07:49;;;;;;;62.58;45.17;;;2.80;99.90;;;;;;4940323;29;20078;-86
2022/03/24 06:10:15;;;;;;;59.47;44.35;;;2.90;99.90;;;;;;4924156;29;20047;-84
2022/03/24 06:12:41;;;;;;;67.10;46.13;;;3.00;99.90;;;;;;4939197;29;20529;-85
2022/03/24 06:15:07;;;;;;;68.60;46.08;;;3.20;99.90;;;;;;4939718;29;20509;-86
2022/03/24 06:17:33;;;;;;;63.95;43.40;;;3.30;99.90;;;;;;4940166;29;20079;-86
2022/03/24 06:20:01;;;;;;;66.50;43.70;;;3.60;99.90;;;;;;4938559;29;20057;-86
2022/03/24 06:22:27;;;;;;;63.05;45.67;;;3.80;99.90;;;;;;4924269;29;20370;-86
2022/03/24 06:24:53;;;;;;;58.30;43.58;;;4.30;99.90;;;;;;4924258;29;20044;-86
2022/03/24 06:27:19;;;;;;;61.75;45.10;;;4.70;99.90;;;;;;4925536;29;20046;-86
2022/03/24 06:29:45;;;;;;;60.33;43.15;;;5.20;99.90;;;;;;4920254;29;20044;-86
2022/03/24 06:32:10;;;;;;;58.70;43.85;;;5.60;99.90;;;;;;4920891;29;20079;-86
2022/03/24 06:34:36;;;;;;;56.83;41.53;;;6.20;99.90;;;;;;4920680;29;20051;-86
2022/03/24 06:37:02;;;;;;;60.63;44.15;;;7.00;99.90;;;;;;4921025;29;20040;-86
2022/03/24 06:39:28;;;;;;;57.00;44.88;;;7.60;99.90;;;;;;4920811;29;20059;-86
2022/03/24 06:41:55;;;;;;;56.70;44.53;;;7.70;99.90;;;;;;4926542;29;20047;-86
2022/03/24 06:44:21;;;;;;;60.28;45.58;;;8.10;99.90;;;;;;4939668;29;20089;-86
2022/03/24 06:46:48;;;;;;;61.63;46.50;;;8.00;99.90;;;;;;4939167;29;20039;-86
2022/03/24 06:49:15;;;;;;;62.10;47.90;;;8.10;99.90;;;;;;4923314;29;20046;-86
2022/03/24 06:51:41;;;;;;;61.28;49.33;;;8.30;99.90;;;;;;4935421;29;20051;-86
2022/03/24 06:54:06;;;;;;;64.65;49.10;;;8.50;99.90;;;;;;4928700;29;20050;-85
2022/03/24 06:56:32;;;;;;;56.38;47.20;;;8.70;99.90;;;;;;4920796;29;20044;-86
2022/03/24 06:58:58;;;;;;;58.10;45.83;;;9.60;99.90;;;;;;4902619;29;20490;-86
2022/03/24 07:01:23;;;;;;;56.95;46.22;;;10.80;99.90;;;;;;4918744;29;20540;-86
2022/03/24 07:03:49;;;;;;;56.08;47.30;;;11.50;99.90;;;;;;4918335;29;20393;-85
2022/03/24 07:06:14;;;;;;;53.42;46.35;;;12.10;98.90;;;;;;4962903;28;20046;-84
2022/03/24 07:08:40;;;;;;;56.17;47.40;;;12.50;97.90;;;;;;4952283;29;20488;-83
2022/03/24 07:11:09;;;;;;;58.78;47.45;;;12.90;97.10;;;;;;4932996;29;20031;-83
2022/03/24 07:13:35;;;;;;;55.03;46.67;;;13.40;96.30;;;;;;4937477;29;20042;-83
2022/03/24 07:16:00;;;;;;;58.53;49.90;;;13.80;95.20;;;;;;4937454;29;20552;-83
2022/03/24 07:18:26;;;;;;;58.83;50.58;;;14.20;94.50;;;;;;4937440;29;20047;-84
2022/03/24 07:20:51;;;;;;;57.85;49.65;;;14.20;94.30;;;;;;4934195;29;20048;-83
2022/03/24 07:23:17;;;;;;;61.25;53.08;;;14.50;93.90;;;;;;4942864;29;20059;-83
2022/03/24 07:25:43;;;;;;;61.92;54.10;;;14.50;93.00;;;;;;4953424;29;20101;-83
2022/03/24 07:28:11;;;;;;;60.10;53.65;;;14.30;93.40;;;;;;4936806;29;20031;-83
2022/03/24 07:30:36;;;;;;;60.78;53.70;;;14.40;93.70;;;;;;4921156;29;20035;-82
2022/03/24 07:33:02;;;;;;;61.90;50.28;;;14.70;93.50;;;;;;4929572;29;20070;-82
2022/03/24 07:35:34;;;;;;;59.78;51.42;;;15.60;93.20;;;;;;4928550;29;20198;-82
2022/03/24 07:38:00;;;;;;;59.63;52.72;;;15.30;91.40;;;;;;4922198;29;20039;-83
2022/03/24 07:40:26;;;;;;;59.92;51.60;;;15.40;91.70;;;;;;4938621;29;20515;-83
2022/03/24 07:42:53;;;;;;;56.92;50.13;;;14.60;92.50;;;;;;4925234;28;20706;-85
2022/03/24 07:45:25;;;;;;;58.40;50.53;;;14.50;93.30;;;;;;4949926;28;20090;-81
2022/03/24 07:48:16;;;;;;;57.05;50.67;;;13.80;94.00;;;;;;4932813;29;20039;-80
2022/03/24 07:50:45;;;;;;;59.92;48.35;;;13.20;94.90;;;;;;4936245;28;20956;-82
2022/03/24 07:53:13;;;;;;;59.00;49.03;;;12.70;95.80;;;;;;4940250;29;20046;-81
2022/03/24 07:55:41;;;;;;;57.80;48.08;;;12.40;97.20;;;;;;4919271;29;20126;-82
2022/03/24 07:58:10;;;;;;;61.55;47.53;;;12.10;97.90;;;;;;4935518;29;20182;-82
2022/03/24 08:00:36;;;;;;;56.90;48.75;;;11.90;99.10;;;;;;4946819;28;20366;-81
2022/03/24 08:03:04;;;;;;;56.35;46.47;;;11.60;99.90;;;;;;4941185;29;20113;-81
2022/03/24 08:05:30;;;;;;;53.78;45.67;;;11.60;99.90;;;;;;4932072;29;20398;-82
2022/03/24 08:07:56;;;;;;;52.05;44.03;;;11.60;99.90;;;;;;4936808;29;20062;-81
2022/03/24 08:10:23;;;;;;;50.92;41.30;;;11.60;99.90;;;;;;4941461;29;20043;-81
2022/03/24 08:12:48;;;;;;;53.20;39.60;;;11.60;99.90;;;;;;4936228;29;20122;-81
2022/03/24 08:15:14;;;;;;;49.40;40.08;;;11.60;99.90;;;;;;4919274;29;20170;-82
2022/03/24 08:17:40;;;;;;;48.83;39.42;;;11.70;99.90;;;;;;4920849;29;20082;-82
2022/03/24 08:20:06;;;;;;;51.63;40.85;;;11.70;99.90;;;;;;4946092;28;20047;-81
2022/03/24 08:22:32;;;;;;;48.45;40.80;;;11.60;99.90;;;;;;4941947;29;20044;-82
2022/03/24 08:24:57;;;;;;;46.33;36.55;;;11.70;99.90;;;;;;4938698;29;20042;-83
2022/03/24 08:27:23;;;;;;;45.50;37.67;;;11.60;98.10;;;;;;4937319;29;20118;-81
2022/03/24 08:29:48;;;;;;;47.47;40.33;;;11.60;98.70;;;;;;4937790;29;20383;-81
2022/03/24 08:32:15;;;;;;;46.80;38.20;;;11.60;99.90;;;;;;4950437;29;20031;-82
2022/03/24 08:34:41;;;;;;;52.10;39.67;;;11.80;99.90;;;;;;4937525;29;20114;-82
2022/03/24 08:37:06;;;;;;;49.42;37.35;;;11.90;99.90;;;;;;4916899;29;20122;-81
2022/03/24 08:39:33;;;;;;;46.47;36.22;;;11.90;98.30;;;;;;4919597;29;20114;-82
2022/03/24 08:41:58;;;;;;;45.00;34.28;;;12.10;98.70;;;;;;4947069;28;20058;-82
2022/03/24 08:44:24;;;;;;;43.20;35.60;;;12.20;97.40;;;;;;4935172;29;20031;-82
2022/03/24 08:46:50;;;;;;;46.08;36.58;;;12.30;97.30;;;;;;4940286;29;20485;-82
2022/03/24 08:49:15;;;;;;;43.15;36.35;;;12.50;97.60;;;;;;4924945;29;20232;-82
2022/03/24 08:51:41;;;;;;;45.08;35.60;;;12.60;98.10;;;;;;4924810;29;20035;-83
2022/03/24 08:54:07;;;;;;;43.92;36.53;;;12.70;97.50;;;;;;4926707;29;20085;-83
2022/03/24 08:56:33;;;;;;;44.75;33.95;;;12.80;96.60;;;;;;4941379;29;20114;-82
2022/03/24 08:58:59;;;;;;;43.70;35.22;;;12.90;97.40;;;;;;4925449;29;20505;-82
2022/03/24 09:01:26;;;;;;;47.72;36.50;;;13.00;97.20;;;;;;4957195;29;20083;-82
2022/03/24 09:03:52;;;;;;;45.75;35.33;;;13.10;96.70;;;;;;4940266;29;20031;-80
2022/03/24 09:06:18;;;;;;;46.85;34.80;;;13.20;95.70;;;;;;4956294;29;20126;-83
2022/03/24 09:08:44;;;;;;;41.17;33.42;;;13.30;95.90;;;;;;4941265;29;20050;-83
2022/03/24 09:11:09;;;;;;;44.78;33.03;;;13.40;95.70;;;;;;4940484;29;20044;-82
2022/03/24 09:13:36;;;;;;;42.95;33.13;;;13.50;94.80;;;;;;4958086;29;20338;-83
2022/03/24 09:16:02;;;;;;;44.97;35.05;;;13.60;94.00;;;;;;4924788;29;20466;-84
2022/03/24 09:18:28;;;;;;;42.00;33.97;;;13.60;93.30;;;;;;4941065;29;20050;-83
2022/03/24 09:20:53;;;;;;;45.30;34.13;;;13.70;94.30;;;;;;4938883;29;20039;-82
2022/03/24 09:23:19;;;;;;;43.35;34.53;;;13.80;94.00;;;;;;4924359;29;20043;-82
2022/03/24 09:25:45;;;;;;;43.63;34.22;;;13.90;94.50;;;;;;4940345;29;20062;-81
2022/03/24 09:28:11;;;;;;;46.25;35.25;;;14.00;94.70;;;;;;4937620;29;20044;-83
2022/03/24 09:30:37;;;;;;;44.45;35.28;;;14.10;94.30;;;;;;4939217;29;20046;-83
2022/03/24 09:33:03;;;;;;;41.60;33.08;;;14.20;93.50;;;;;;4940454;29;20051;-83
2022/03/24 09:35:28;;;;;;;44.72;34.03;;;14.40;94.10;;;;;;4953677;29;20039;-83
2022/03/24 09:37:55;;;;;;;43.42;31.67;;;14.50;92.60;;;;;;4933792;29;20047;-83
2022/03/24 09:40:21;;;;;;;42.97;32.83;;;14.60;92.10;;;;;;4939312;29;20047;-83
2022/03/24 09:42:46;;;;;;;42.45;32.83;;;14.70;92.00;;;;;;4940082;29;20045;-82
2022/03/24 09:45:13;;;;;;;42.00;33.45;;;14.70;91.20;;;;;;4940087;29;20125;-83
2022/03/24 09:47:40;;;;;;;41.45;30.13;;;14.80;91.40;;;;;;4924370;29;20082;-83
2022/03/24 09:50:07;;;;;;;39.05;31.33;;;14.80;90.90;;;;;;4940094;29;20039;-82
2022/03/24 09:52:33;;;;;;;42.42;32.90;;;14.80;89.20;;;;;;4956212;29;20090;-84
2022/03/24 09:54:59;;;;;;;39.45;31.58;;;14.90;90.80;;;;;;4938915;29;20051;-83
2022/03/24 09:57:25;;;;;;;39.45;30.95;;;15.00;91.20;;;;;;4948387;29;20078;-83
2022/03/24 09:59:50;;;;;;;37.58;28.33;;;15.00;87.90;;;;;;4928431;29;20122;-82
2022/03/24 10:02:18;;;;;;;42.63;31.00;;;15.00;90.30;;;;;;4939636;29;20643;-83
2022/03/24 10:04:57;;;;;;;36.83;28.75;;;15.20;90.00;;;;;;4942681;29;20107;-83
2022/03/24 10:07:25;;;;;;;37.88;29.98;;;15.20;88.50;;;;;;4939429;29;20055;-83
2022/03/24 10:09:55;;;;;;;39.33;30.17;;;15.20;84.80;;;;;;4956805;29;20126;-83
2022/03/24 10:12:24;;;;;;;39.95;28.27;;;15.20;84.30;;;;;;4938139;29;20055;-82
2022/03/24 10:15:04;;;;;;;40.58;28.35;;;15.20;81.30;;;;;;4940130;29;20047;-83
2022/03/24 10:17:32;;;;;;;38.58;29.90;;;15.30;83.90;;;;;;4939209;29;20066;-83
2022/03/24 10:20:12;;;;;;;37.20;29.27;;;15.50;83.60;;;;;;4939691;29;20039;-83
2022/03/24 10:22:37;;;;;;;36.78;27.33;;;15.50;85.70;;;;;;4943039;29;20098;-82
2022/03/24 10:25:20;;;;;;;37.63;27.45;;;15.40;78.10;;;;;;4939547;29;20039;-83
2022/03/24 10:27:49;;;;;;;40.28;28.73;;;15.60;80.40;;;;;;4937556;29;20043;-83
2022/03/24 10:30:15;;;;;;;33.85;25.27;;;15.60;81.50;;;;;;4939268;29;20039;-83
2022/03/24 10:32:56;;;;;;;36.20;26.85;;;15.60;73.40;;;;;;4923158;29;20145;-83
2022/03/24 10:35:22;;;;;;;40.40;28.08;;;15.70;77.30;;;;;;4929488;29;20422;-82
2022/03/24 10:37:50;;;;;;;41.55;27.08;;;15.80;80.40;;;;;;4935966;29;20068;-83
2022/03/24 10:40:15;;;;;;;38.65;27.02;;;15.90;75.30;;;;;;4939287;29;20066;-83
2022/03/24 10:42:41;;;;;;;40.22;28.05;;;16.00;78.00;;;;;;4922939;29;20050;-83
2022/03/24 10:45:19;;;;;;;36.15;26.33;;;16.20;79.50;;;;;;4921859;29;20035;-82
2022/03/24 10:47:51;;;;;;;33.60;25.35;;;16.20;75.50;;;;;;4938845;29;20043;-83
2022/03/24 10:50:28;;;;;;;34.03;24.73;;;16.40;76.80;;;;;;4924663;29;20047;-83
2022/03/24 10:52:57;;;;;;;34.53;24.38;;;16.50;77.60;;;;;;4953113;28;20047;-83
2022/03/24 10:55:47;;;;;;;38.85;27.83;;;16.60;76.50;;;;;;4936788;28;20047;-83
2022/03/24 10:58:40;;;;;;;41.10;29.83;;;16.50;69.90;;;;;;4937190;29;20194;-83
2022/03/24 11:01:13;;;;;;;44.00;31.05;;;16.10;68.90;;;;;;4930705;29;20492;-83
2022/03/24 11:03:40;;;;;;;42.38;31.00;;;16.30;72.30;;;;;;4927929;29;20051;-83
2022/03/24 11:06:08;;;;;;;36.15;28.42;;;16.40;72.60;;;;;;4921386;29;20055;-83
2022/03/24 11:08:34;;;;;;;38.83;28.55;;;16.50;74.10;;;;;;4954127;29;20066;-83
2022/03/24 11:11:00;;;;;;;37.10;28.50;;;16.70;74.60;;;;;;4923672;29;20042;-83
2022/03/24 11:13:38;;;;;;;31.52;25.45;;;16.80;72.50;;;;;;4938137;29;20082;-83
2022/03/24 11:16:05;;;;;;;34.10;26.05;;;17.00;72.40;;;;;;4954634;29;20073;-83
2022/03/24 11:18:31;;;;;;;34.92;27.05;;;17.00;64.10;;;;;;4937515;29;20070;-86
2022/03/24 11:21:03;;;;;;;37.00;28.17;;;17.00;69.10;;;;;;4935888;29;20081;-86
2022/03/24 11:23:35;;;;;;;38.67;25.52;;;16.80;62.00;;;;;;4922459;29;20086;-85
2022/03/24 11:26:03;;;;;;;35.10;24.83;;;16.90;67.00;;;;;;4920099;29;20501;-86
2022/03/24 11:28:31;;;;;;;33.42;24.23;;;17.10;68.60;;;;;;4938461;29;20043;-86
2022/03/24 11:30:57;;;;;;;31.77;25.23;;;17.20;68.00;;;;;;4938860;29;20051;-86
2022/03/24 11:33:23;;;;;;;30.63;22.25;;;17.20;62.40;;;;;;4938721;29;20058;-85
2022/03/24 11:35:49;;;;;;;30.80;23.92;;;17.30;67.90;;;;;;4950813;29;20085;-85
2022/03/24 11:38:15;;;;;;;35.08;23.42;;;17.30;65.20;;;;;;4922825;29;20054;-85
2022/03/24 11:40:41;;;;;;;28.92;21.65;;;17.50;66.30;;;;;;4938358;29;20051;-86
2022/03/24 11:43:17;;;;;;;31.00;23.92;;;17.50;60.30;;;;;;4937372;29;20036;-85
2022/03/24 11:46:03;;;;;;;30.55;22.17;;;17.40;56.10;;;;;;4922044;29;20118;-86
2022/03/24 11:48:37;;;;;;;28.40;19.05;;;17.20;54.60;;;;;;4936299;29;20105;-87
2022/03/24 11:51:14;;;;;;;32.13;19.88;;;17.30;56.20;;;;;;4953884;29;20516;-87
2022/03/24 11:53:40;;;;;;;29.80;21.63;;;17.40;54.70;;;;;;4945095;29;20374;-86
2022/03/24 11:56:06;;;;;;;32.70;24.38;;;17.40;59.20;;;;;;4917014;29;20043;-85
2022/03/24 11:58:54;;;;;;;31.23;24.25;;;17.50;56.90;;;;;;4937878;29;20036;-86
2022/03/24 12:01:19;;;;;;;32.35;23.42;;;17.60;62.40;;;;;;4932095;29;20102;-86
2022/03/24 12:03:51;;;;;;;29.17;23.25;;;17.70;63.20;;;;;;4937126;29;20039;-86
2022/03/24 12:06:18;;;;;;;29.42;24.50;;;17.80;64.50;;;;;;4934566;29;20059;-88
2022/03/24 12:08:51;;;;;;;32.97;24.05;;;17.80;61.90;;;;;;4934886;29;20044;-87
2022/03/24 12:11:32;;;;;;;32.58;24.40;;;17.90;61.30;;;;;;4933372;29;20102;-86
2022/03/24 12:14:09;;;;;;;34.22;23.17;;;17.90;58.90;;;;;;4934073;29;20387;-85
2022/03/24 12:16:39;;;;;;;30.13;21.75;;;17.90;58.10;;;;;;4912031;29;20122;-85
2022/03/24 12:19:26;;;;;;;31.70;22.55;;;18.00;62.10;;;;;;4925402;29;20090;-85
2022/03/24 12:21:52;;;;;;;35.22;26.85;;;18.10;62.50;;;;;;4931126;29;20043;-85
2022/03/24 12:24:18;;;;;;;36.10;27.02;;;17.80;56.70;;;;;;4933164;29;20040;-86
2022/03/24 12:26:55;;;;;;;36.50;26.38;;;17.60;57.00;;;;;;4930246;29;20040;-86
2022/03/24 12:29:26;;;;;;;37.47;28.92;;;17.70;61.90;;;;;;4922295;29;20119;-86
2022/03/24 12:32:07;;;;;;;36.07;28.20;;;17.70;58.80;;;;;;4930503;29;20042;-85
2022/03/24 12:34:39;;;;;;;31.80;28.02;;;17.40;58.70;;;;;;4914129;29;20454;-87